Airfield :
LOGIN :

Register | Disclaimer

   EN    FR    IT 

 










Legend :    VFR   Marginal VFR   IFR   Intensive IFR   Very Intensive IFR
Visi :
Ceiling :
>= 8 km
>= 3000ft
5 to 8 km
1000 to 3000 ft
1500m to 5 km
500 to 1000 ft
800 to 1500m
200 to 500 ft
< 800m
< 200 ft
Symbols :   Thunderstorms  Fog  Heavy snow  Heavy precipitations  Wind > 20 kt
SIGMETs :     Misc.  Thunderstorms  Icing  Turbulence  Mountain Waves  Volcanic Ashes







- Airport Elevation : 3 ft
- IATA code : DHR


EHKD - Den Helder De Kooy

CURRENT METAR :
  • 260701Z AUTO 26017KT 9999 FEW013 SCT050 09/06 Q1012 BLU 26015KT 9999 FEW013 TEMPO SCT012

EXPIRED METARs :
  • 260655Z AUTO 27016KT 9999 FEW013 09/06 Q1012 BLU 26015KT 9999 FEW012
  • 260640Z AUTO 26016KT 230V290 9999 FEW013 09/06 Q1012 BLU 26015KT 9999 FEW012
  • 260637Z AUTO 26016KT 230V290 9999 FEW013 SCT015 09/07 Q1012 WHT 26015KT 9999 FEW012 TEMPO SCT011
  • 260627Z AUTO 26016KT 230V290 9999 SCT013 BKN016 09/06 Q1011 GRN 26015KT 9999 FEW012 TEMPO SCT011
  • 260625Z AUTO 26016KT 230V290 9999 FEW013 SCT015 09/06 Q1011 WHT 26015KT 9999 FEW012 TEMPO SCT011
  • 260609Z AUTO 26015KT 9999 FEW013 SCT015 09/06 Q1011 WHT 26015KT 9999 FEW012 TEMPO SCT011
  • 260555Z AUTO 26016KT 230V290 9999 FEW013 09/06 Q1011 BLU 26015KT 9999 FEW012 TEMPO SCT011
  • 260526Z AUTO 27016KT 9999 FEW013 08/06 Q1011 BLU 26015KT 9999 FEW012 TEMPO SCT011
  • 260459Z AUTO 27015KT 9999 FEW014 BKN061 BKN066 08/06 Q1011 BLU 26015KT 9999 FEW012
  • 260455Z AUTO 26015KT 9999 BKN055 OVC062 09/06 Q1010 BLU 26015KT 9999 FEW035
  • 260425Z AUTO 26014KT 230V290 9999 SCT064 08/06 Q1010 BLU 26015KT 9999 FEW035

TAF TAF EHKD
Valid from the 26 at 05:00 until the 26 at 17:00 UTC


260407Z 2605/2617 24010KT 9999 FEW012 SCT040
PROB30
TEMPO 2605/2608 SCT010 SCT040
BECMG 2607/2609 25015G25KT
No reported NOTAMs for that airfield.



MET'MAP, your aeronautical weather chart ! - Copyright ORBIFLY December 2007 - Disclaimer

ORBIFLY MET'MAP TEAM :

Programming & Development : Alexandra Zaïnal
Concept & Development : Baudouin d'Aumeries
Co-Development & Prog : Marc-Olivier Méhu
Technical & hardware support : Manuel Goepfert

Contact : metmap@orbifly.com




SOURCES & CREDITS :

   NOAA